Rayville, Louisiana
Current Conditions -  °F | °C
As of 6:53 PM on Wednesday 26 Nov 2014 (Local Time) from KMLU Reporting Station
Clear Clear  
Wind Chill: 12°   Ceiling: Unl
Heat Index: 12°   Visibility: 10mi
Dew Point:   Wind: 6mph
Humidity: 49%   Direction: 300°WNW
Pressure: 30.18"   Gusts: NA
Location:  32.48°N, 91.75°W
Report Text: KMLU 270053Z 30005KT 10SM CLR 12/02 A3018 RMK AO2 SLP218 T01220017
Loading
Personal Weather Stations






























Interactive Weather Map New forecast layout! Learn more

10-Day Weather Forecast

Advertisements
Track Severe Weather on mobile